createdAt,value
2018-06-05T00:01:58.483Z,16.40
2018-06-05T00:04:27.180Z,16.39
2018-06-05T00:06:56.047Z,16.33
2018-06-05T00:09:24.638Z,16.26
2018-06-05T00:11:53.270Z,16.18
2018-06-05T00:14:21.832Z,16.20
2018-06-05T00:16:50.548Z,16.17
2018-06-05T00:19:19.305Z,16.14
2018-06-05T00:21:47.838Z,16.11
2018-06-05T00:24:16.538Z,16.10
2018-06-05T00:26:45.917Z,16.12
2018-06-05T00:29:14.464Z,16.13
2018-06-05T00:31:43.322Z,16.05
2018-06-05T00:34:12.108Z,16.07
2018-06-05T00:36:40.671Z,16.06
2018-06-05T00:39:09.267Z,16.02
2018-06-05T00:41:37.885Z,16.00
2018-06-05T00:44:06.604Z,15.97
2018-06-05T00:46:35.182Z,15.94
2018-06-05T00:49:03.942Z,15.88
2018-06-05T00:51:43.573Z,15.97
2018-06-05T00:54:13.311Z,16.06
2018-06-05T00:56:42.527Z,16.13
2018-06-05T00:59:11.728Z,16.00
2018-06-05T01:01:40.566Z,15.98
2018-06-05T01:04:09.338Z,15.97
2018-06-05T01:06:38.263Z,15.94
2018-06-05T01:09:08.478Z,15.78
2018-06-05T01:11:37.789Z,15.70
2018-06-05T01:14:06.628Z,15.69
2018-06-05T01:16:35.326Z,15.65
2018-06-05T01:19:03.992Z,15.74
2018-06-05T01:21:32.650Z,15.72
2018-06-05T01:24:02.144Z,15.64
2018-06-05T01:26:31.063Z,15.41
2018-06-05T01:29:00.442Z,15.33
2018-06-05T01:31:29.032Z,15.41
2018-06-05T01:33:57.758Z,15.51
2018-06-05T01:36:26.325Z,15.48
2018-06-05T01:38:55.336Z,15.46
2018-06-05T01:41:23.957Z,15.36
2018-06-05T01:43:52.659Z,15.30
2018-06-05T01:46:21.552Z,15.30
2018-06-05T01:48:50.085Z,15.39
2018-06-05T01:51:19.582Z,15.41
2018-06-05T01:53:48.253Z,15.37
2018-06-05T01:56:16.918Z,15.31
2018-06-05T01:58:45.640Z,15.25
2018-06-05T02:01:14.399Z,15.17
2018-06-05T02:03:43.541Z,15.08
2018-06-05T02:06:12.219Z,15.07
2018-06-05T02:08:41.033Z,15.07
2018-06-05T02:11:09.635Z,15.00
2018-06-05T02:13:39.658Z,14.98
2018-06-05T02:16:11.459Z,14.96
2018-06-05T02:18:42.045Z,15.01
2018-06-05T02:21:11.747Z,15.03
2018-06-05T02:23:42.997Z,15.05
2018-06-05T02:26:12.385Z,14.91
2018-06-05T02:28:41.203Z,14.92
2018-06-05T02:31:09.824Z,14.91
2018-06-05T02:33:38.421Z,14.83
2018-06-05T02:36:07.050Z,14.73
2018-06-05T02:38:35.724Z,14.75
2018-06-05T02:41:04.353Z,14.76
2018-06-05T02:43:33.059Z,14.61
2018-06-05T02:46:01.974Z,14.56
2018-06-05T02:48:30.530Z,14.60
2018-06-05T02:50:59.143Z,14.67
2018-06-05T02:53:27.773Z,14.73
2018-06-05T02:55:56.459Z,14.69
2018-06-05T02:58:24.980Z,14.50
2018-06-05T03:00:53.678Z,14.45
2018-06-05T03:03:22.428Z,14.40
2018-06-05T03:05:51.390Z,14.39
2018-06-05T03:08:20.025Z,14.46
2018-06-05T03:10:48.679Z,14.56
2018-06-05T03:13:17.576Z,14.55
2018-06-05T03:15:47.036Z,14.47
2018-06-05T03:18:15.694Z,14.42
2018-06-05T03:20:44.520Z,14.43
2018-06-05T03:23:13.154Z,14.35
2018-06-05T03:25:42.010Z,14.30
2018-06-05T03:28:10.651Z,14.22
2018-06-05T03:30:39.529Z,14.19
2018-06-05T03:33:08.044Z,14.35
2018-06-05T03:35:36.648Z,14.38
2018-06-05T03:38:05.363Z,14.24
2018-06-05T03:40:34.574Z,14.29
2018-06-05T03:43:03.876Z,14.35
2018-06-05T03:45:32.569Z,14.40
2018-06-05T03:48:01.168Z,14.34
2018-06-05T03:50:29.765Z,14.14
2018-06-05T03:52:58.489Z,14.12
2018-06-05T03:55:27.766Z,14.21
2018-06-05T03:57:56.400Z,14.37
2018-06-05T04:00:25.002Z,14.49
2018-06-05T04:02:53.499Z,14.44
2018-06-05T04:05:22.419Z,14.54
2018-06-05T04:07:51.694Z,14.65
2018-06-05T04:10:20.410Z,14.70
2018-06-05T04:12:49.078Z,14.59
2018-06-05T04:15:17.669Z,14.61
2018-06-05T04:17:46.230Z,14.71
2018-06-05T04:20:14.863Z,14.82
2018-06-05T04:22:43.488Z,14.81
2018-06-05T04:25:12.621Z,14.80
2018-06-05T04:27:41.216Z,15.05
2018-06-05T04:30:10.054Z,15.22
2018-06-05T04:32:38.906Z,15.31
2018-06-05T04:35:08.571Z,15.34
2018-06-05T04:37:37.220Z,15.49
2018-06-05T04:40:05.850Z,15.57
2018-06-05T04:42:34.411Z,15.61
2018-06-05T04:45:03.081Z,15.62
2018-06-05T04:47:31.951Z,15.68
2018-06-05T04:50:00.616Z,15.65
2018-06-05T04:52:29.271Z,15.75
2018-06-05T04:54:57.819Z,16.03
2018-06-05T04:57:26.649Z,16.36
2018-06-05T04:59:55.974Z,16.52
2018-06-05T05:02:24.693Z,16.68
2018-06-05T05:04:53.305Z,16.79
2018-06-05T05:07:21.870Z,16.94
2018-06-05T05:09:51.556Z,17.06
2018-06-05T05:12:20.100Z,17.27
2018-06-05T05:14:48.791Z,17.46
2018-06-05T05:17:17.634Z,17.67
2018-06-05T05:19:46.084Z,18.14
2018-06-05T05:22:14.939Z,18.71
2018-06-05T05:24:44.350Z,19.37
2018-06-05T05:27:13.014Z,19.98
2018-06-05T05:29:42.618Z,20.73
2018-06-05T05:32:11.451Z,21.35
2018-06-05T05:37:07.454Z,22.47
2018-06-05T05:39:36.091Z,22.28
2018-06-05T05:42:04.821Z,22.72
2018-06-05T05:44:33.567Z,22.36
2018-06-05T05:47:02.295Z,22.42
2018-06-05T05:49:30.974Z,22.53
2018-06-05T05:51:59.788Z,22.99
2018-06-05T05:54:28.445Z,23.75
2018-06-05T05:56:57.255Z,24.22
2018-06-05T05:59:25.862Z,24.10
2018-06-05T06:01:54.660Z,24.77
2018-06-05T06:04:23.625Z,25.15
2018-06-05T06:06:52.412Z,25.26
2018-06-05T06:09:21.354Z,26.19
2018-06-05T06:11:50.736Z,26.65
2018-06-05T06:14:19.824Z,25.83
2018-06-05T06:16:48.430Z,27.12
2018-06-05T06:19:17.290Z,27.98
2018-06-05T06:21:45.964Z,28.19
2018-06-05T06:24:14.820Z,28.67
2018-06-05T06:26:43.681Z,29.01
2018-06-05T06:29:12.317Z,29.06
2018-06-05T06:31:40.908Z,29.66
2018-06-05T06:34:09.490Z,29.73
2018-06-05T06:36:38.252Z,29.10
2018-06-05T06:39:10.246Z,29.83
2018-06-05T06:41:39.310Z,29.41
2018-06-05T06:44:07.998Z,30.17
2018-06-05T06:46:36.796Z,30.46
2018-06-05T06:49:06.130Z,30.19
2018-06-05T06:51:34.776Z,30.59
2018-06-05T06:54:02.610Z,30.81
2018-06-05T06:56:31.901Z,31.25
2018-06-05T06:59:00.582Z,31.79
2018-06-05T07:01:29.347Z,32.16
2018-06-05T07:03:58.037Z,32.08
2018-06-05T07:06:25.917Z,32.56
2018-06-05T07:08:54.890Z,32.55
2018-06-05T07:11:23.778Z,32.49
2018-06-05T07:13:51.575Z,31.87
2018-06-05T07:16:19.340Z,32.30
2018-06-05T07:18:47.077Z,33.03
2018-06-05T07:21:16.022Z,33.29
2018-06-05T07:23:44.646Z,33.22
2018-06-05T07:26:13.537Z,33.04
2018-06-05T07:28:42.800Z,33.49
2018-06-05T07:31:11.812Z,33.38
2018-06-05T07:33:40.507Z,33.29
2018-06-05T07:36:09.250Z,31.72
2018-06-05T07:38:37.976Z,29.79
2018-06-05T07:41:07.103Z,29.62
2018-06-05T07:43:35.839Z,30.70
2018-06-05T07:46:05.148Z,30.91
2018-06-05T07:48:34.848Z,31.34
2018-06-05T07:51:03.557Z,32.27
2018-06-05T07:53:32.276Z,33.73
2018-06-05T07:56:01.223Z,34.39
2018-06-05T07:58:29.757Z,34.95
2018-06-05T08:00:58.753Z,35.81
2018-06-05T08:03:27.527Z,35.56
2018-06-05T08:05:56.071Z,34.62
2018-06-05T08:08:24.668Z,36.07
2018-06-05T08:10:53.618Z,35.37
2018-06-05T08:13:22.326Z,33.37
2018-06-05T08:15:51.357Z,32.41
2018-06-05T08:18:20.019Z,33.61
2018-06-05T08:20:48.717Z,34.10
2018-06-05T08:23:17.514Z,35.52
2018-06-05T08:25:46.801Z,37.14
2018-06-05T08:28:15.399Z,37.29
2018-06-05T08:30:44.236Z,36.88
2018-06-05T08:33:13.692Z,36.81
2018-06-05T08:35:42.351Z,38.00
2018-06-05T08:38:10.936Z,38.40
2018-06-05T08:40:39.708Z,38.98
2018-06-05T08:43:08.400Z,39.10
2018-06-05T08:45:37.076Z,39.94
2018-06-05T08:48:05.897Z,38.10
2018-06-05T08:50:34.598Z,38.66
2018-06-05T08:53:03.433Z,40.44
2018-06-05T08:55:31.938Z,40.35
2018-06-05T08:58:00.448Z,40.26
2018-06-05T09:00:29.302Z,40.31
2018-06-05T09:02:57.913Z,41.65
2018-06-05T09:05:26.920Z,41.16
2018-06-05T09:07:55.771Z,40.97
2018-06-05T09:10:24.497Z,41.93
2018-06-05T09:12:53.271Z,42.03
2018-06-05T09:15:21.869Z,41.16
2018-06-05T09:17:51.201Z,41.90
2018-06-05T09:20:19.878Z,42.35
2018-06-05T09:22:48.617Z,42.57
2018-06-05T09:25:17.989Z,42.73
2018-06-05T09:27:46.919Z,42.93
2018-06-05T09:30:15.749Z,41.35
2018-06-05T09:32:44.516Z,42.66
2018-06-05T09:35:13.248Z,42.54
2018-06-05T09:37:42.652Z,43.73
2018-06-05T09:40:11.344Z,42.81
2018-06-05T09:42:40.323Z,43.90
2018-06-05T09:45:09.527Z,43.15
2018-06-05T09:47:38.882Z,43.97
2018-06-05T09:50:07.594Z,44.62
2018-06-05T09:52:36.207Z,44.87
2018-06-05T09:55:05.489Z,44.26
2018-06-05T09:57:34.103Z,44.99
2018-06-05T10:00:02.896Z,44.44
2018-06-05T10:02:31.643Z,44.93
2018-06-05T10:05:00.277Z,44.36
2018-06-05T10:07:29.650Z,44.48
2018-06-05T10:09:58.273Z,46.10
2018-06-05T10:12:27.092Z,46.55
2018-06-05T10:14:55.611Z,45.33
2018-06-05T10:17:24.627Z,46.04
2018-06-05T10:19:53.454Z,48.08
2018-06-05T10:22:22.251Z,46.64
2018-06-05T10:24:51.174Z,46.09
2018-06-05T10:27:20.167Z,47.91
2018-06-05T10:29:49.851Z,49.00
2018-06-05T10:32:18.614Z,48.75
2018-06-05T10:34:47.279Z,48.58
2018-06-05T10:37:15.904Z,48.69
2018-06-05T10:39:44.669Z,48.13
2018-06-05T10:42:13.978Z,48.59
2018-06-05T10:44:42.607Z,47.73
2018-06-05T10:47:11.326Z,48.00
2018-06-05T10:49:40.173Z,47.29
2018-06-05T10:52:09.923Z,46.86
2018-06-05T10:54:38.956Z,46.52
2018-06-05T10:57:07.583Z,46.63
2018-06-05T10:59:36.328Z,45.87
2018-06-05T11:02:05.327Z,44.50
2018-06-05T11:04:33.994Z,42.93
2018-06-05T11:07:03.012Z,40.95
2018-06-05T11:09:31.917Z,39.47
2018-06-05T11:12:00.777Z,38.99
2018-06-05T11:14:29.466Z,38.33
2018-06-05T11:16:58.181Z,37.62
2018-06-05T11:19:27.134Z,37.36
2018-06-05T11:21:56.432Z,37.18
2018-06-05T11:24:25.200Z,36.88
2018-06-05T11:26:54.035Z,36.68
2018-06-05T11:29:22.829Z,36.10
2018-06-05T11:31:51.699Z,36.38
2018-06-05T11:34:20.839Z,36.54
2018-06-05T11:36:50.086Z,36.47
2018-06-05T11:39:18.870Z,36.48
2018-06-05T11:41:47.487Z,36.48
2018-06-05T11:44:16.241Z,36.26
2018-06-05T11:46:44.975Z,36.26
2018-06-05T11:49:13.644Z,36.24
2018-06-05T11:51:43.498Z,35.69
2018-06-05T11:54:12.485Z,35.65
2018-06-05T11:56:41.003Z,35.59
2018-06-05T11:59:09.838Z,35.75
2018-06-05T12:01:38.392Z,35.33
2018-06-05T12:04:07.024Z,35.34
2018-06-05T12:06:35.727Z,35.59
2018-06-05T12:09:07.034Z,35.30
2018-06-05T12:11:35.594Z,34.84
2018-06-05T12:14:04.266Z,35.06
2018-06-05T12:16:33.590Z,34.82
2018-06-05T12:19:02.424Z,35.25
2018-06-05T12:21:31.068Z,35.45
2018-06-05T12:23:59.708Z,35.65
2018-06-05T12:26:28.488Z,35.54
2018-06-05T12:28:57.062Z,34.87
2018-06-05T12:31:26.843Z,34.37
2018-06-05T12:33:55.358Z,33.87
2018-06-05T12:36:23.967Z,33.69
2018-06-05T12:38:52.612Z,34.05
2018-06-05T12:41:21.483Z,34.38
2018-06-05T12:43:50.324Z,34.16
2018-06-05T12:46:19.234Z,34.40
2018-06-05T12:48:48.127Z,34.25
2018-06-05T12:51:16.837Z,34.36
2018-06-05T12:53:45.587Z,33.88
2018-06-05T12:56:14.333Z,33.64
2018-06-05T12:58:43.161Z,33.50
2018-06-05T13:01:11.787Z,33.82
2018-06-05T13:03:40.944Z,34.06
2018-06-05T13:06:09.637Z,33.72
2018-06-05T13:08:38.358Z,33.48
2018-06-05T13:11:07.018Z,33.68
2018-06-05T13:13:35.846Z,33.53
2018-06-05T13:16:05.147Z,33.73
2018-06-05T13:18:33.903Z,33.72
2018-06-05T13:21:02.566Z,33.58
2018-06-05T13:23:31.084Z,33.15
2018-06-05T13:26:01.121Z,32.51
2018-06-05T13:28:29.835Z,32.04
2018-06-05T13:30:58.565Z,31.81
2018-06-05T13:33:27.202Z,31.54
2018-06-05T13:35:55.890Z,31.69
2018-06-05T13:38:25.397Z,31.69
2018-06-05T13:40:53.973Z,31.55
2018-06-05T13:43:23.472Z,31.64
2018-06-05T13:45:52.083Z,31.72
2018-06-05T13:48:21.092Z,32.11
2018-06-05T13:50:49.792Z,32.10
2018-06-05T13:53:18.443Z,32.00
2018-06-05T13:55:47.281Z,32.20
2018-06-05T13:58:16.029Z,32.30
2018-06-05T14:00:45.324Z,32.40
2018-06-05T14:03:13.857Z,32.56
2018-06-05T14:05:42.584Z,32.55
2018-06-05T14:08:11.514Z,32.77
2018-06-05T14:10:40.430Z,32.77
2018-06-05T14:13:09.040Z,33.06
2018-06-05T14:15:37.720Z,33.14
2018-06-05T14:18:06.734Z,33.13
2018-06-05T14:20:35.983Z,33.16
2018-06-05T14:23:05.059Z,32.95
2018-06-05T14:25:33.855Z,32.67
2018-06-05T14:28:02.665Z,32.46
2018-06-05T14:30:31.582Z,32.50
2018-06-05T14:33:00.483Z,32.35
2018-06-05T14:35:29.232Z,32.26
2018-06-05T14:37:57.837Z,32.27
2018-06-05T14:40:26.794Z,32.15
2018-06-05T14:42:55.635Z,32.11
2018-06-05T14:45:24.449Z,31.97
2018-06-05T14:47:53.070Z,31.98
2018-06-05T14:50:21.841Z,32.07
2018-06-05T14:52:50.760Z,32.24
2018-06-05T14:55:19.520Z,32.00
2018-06-05T14:57:48.040Z,31.97
2018-06-05T15:00:16.736Z,31.83
2018-06-05T15:02:45.491Z,31.84
2018-06-05T15:05:14.400Z,31.91
2018-06-05T15:07:43.373Z,31.94
2018-06-05T15:10:12.301Z,31.99
2018-06-05T15:12:41.140Z,31.98
2018-06-05T15:15:10.069Z,32.14
2018-06-05T15:17:38.750Z,32.04
2018-06-05T15:20:07.524Z,31.93
2018-06-05T15:22:36.356Z,31.82
2018-06-05T15:25:05.028Z,31.78
2018-06-05T15:27:33.851Z,31.24
2018-06-05T15:30:02.545Z,31.02
2018-06-05T15:32:31.479Z,30.76
2018-06-05T15:35:00.162Z,30.59
2018-06-05T15:37:28.924Z,30.38
2018-06-05T15:39:57.604Z,30.13
2018-06-05T15:42:26.256Z,30.02
2018-06-05T15:44:55.189Z,29.99
2018-06-05T15:47:24.084Z,30.01
2018-06-05T15:49:52.785Z,30.14
2018-06-05T15:52:21.488Z,30.18
2018-06-05T15:54:50.979Z,30.14
2018-06-05T15:57:19.830Z,30.05
2018-06-05T15:59:48.465Z,30.02
2018-06-05T16:02:17.430Z,30.03
2018-06-05T16:04:46.125Z,29.89
2018-06-05T16:07:14.750Z,29.71
2018-06-05T16:09:43.459Z,29.69
2018-06-05T16:12:12.168Z,29.88
2018-06-05T16:14:40.761Z,30.09
2018-06-05T16:17:09.520Z,30.26
2018-06-05T16:19:38.198Z,30.43
2018-06-05T16:22:06.830Z,30.45
2018-06-05T16:24:35.904Z,30.50
2018-06-05T16:27:04.805Z,30.60
2018-06-05T16:29:34.164Z,30.74
2018-06-05T16:32:02.757Z,30.67
2018-06-05T16:34:31.579Z,30.68
2018-06-05T16:37:01.184Z,30.72
2018-06-05T16:39:29.864Z,30.61
2018-06-05T16:41:58.739Z,30.69
2018-06-05T16:44:27.413Z,30.48
2018-06-05T16:46:56.155Z,30.41
2018-06-05T16:49:25.000Z,30.45
2018-06-05T16:51:53.666Z,30.26
2018-06-05T16:54:22.559Z,30.06
2018-06-05T16:56:51.696Z,29.96
2018-06-05T16:59:20.374Z,29.98
2018-06-05T17:01:48.985Z,29.70
2018-06-05T17:04:17.944Z,29.68
2018-06-05T17:06:46.526Z,29.68
2018-06-05T17:09:15.350Z,29.43
2018-06-05T17:11:44.206Z,29.18
2018-06-05T17:14:12.984Z,28.82
2018-06-05T17:16:41.760Z,28.72
2018-06-05T17:20:13.554Z,28.64
2018-06-05T17:22:42.295Z,28.23
2018-06-05T17:25:11.259Z,28.03
2018-06-05T17:27:39.985Z,27.92
2018-06-05T17:30:09.075Z,27.85
2018-06-05T17:32:37.984Z,27.77
2018-06-05T17:35:06.701Z,27.70
2018-06-05T17:37:35.630Z,27.69
2018-06-05T17:40:05.109Z,27.58
2018-06-05T17:42:33.871Z,27.45
2018-06-05T17:45:03.474Z,27.44
2018-06-05T17:47:32.051Z,27.40
2018-06-05T17:50:00.675Z,27.26
2018-06-05T17:52:29.320Z,27.18
2018-06-05T17:54:57.955Z,27.15
2018-06-05T17:57:26.579Z,27.12
2018-06-05T17:59:55.291Z,27.04
2018-06-05T18:02:24.010Z,27.04
2018-06-05T18:04:52.651Z,26.90
2018-06-05T18:07:21.546Z,26.83
2018-06-05T18:09:50.336Z,26.59
2018-06-05T18:12:19.210Z,26.54
2018-06-05T18:14:48.206Z,26.33
2018-06-05T18:17:17.387Z,26.16
2018-06-05T18:19:46.914Z,26.06
2018-06-05T18:22:15.554Z,26.02
2018-06-05T18:24:44.401Z,25.93
2018-06-05T18:27:13.351Z,25.82
2018-06-05T18:29:42.737Z,25.73
2018-06-05T18:32:11.570Z,25.62
2018-06-05T18:34:40.542Z,25.66
2018-06-05T18:37:09.440Z,25.61
2018-06-05T18:39:39.265Z,25.45
2018-06-05T18:42:08.129Z,25.34
2018-06-05T18:44:36.951Z,25.24
2018-06-05T18:47:05.870Z,25.25
2018-06-05T18:49:34.621Z,25.21
2018-06-05T18:52:03.426Z,25.20
2018-06-05T18:54:32.095Z,25.12
2018-06-05T18:57:00.786Z,24.96
2018-06-05T18:59:29.575Z,24.74
2018-06-05T19:01:58.244Z,24.53
2018-06-05T19:04:27.286Z,24.34
2018-06-05T19:06:56.123Z,24.41
2018-06-05T19:09:24.999Z,24.29
2018-06-05T19:11:54.132Z,24.24
2018-06-05T19:14:22.135Z,24.09
2018-06-05T19:16:51.484Z,23.88
2018-06-05T19:19:19.460Z,23.74
2018-06-05T19:21:47.339Z,23.54
2018-06-05T19:24:16.204Z,23.40
2018-06-05T19:26:45.633Z,23.30
2018-06-05T19:29:14.511Z,23.30
2018-06-05T19:31:42.436Z,23.51
2018-06-05T19:34:10.389Z,23.62
2018-06-05T19:36:39.699Z,23.53
2018-06-05T19:39:08.727Z,23.81
2018-06-05T19:41:37.377Z,24.41
2018-06-05T19:44:05.680Z,24.57
2018-06-05T19:46:35.357Z,24.61
2018-06-05T19:49:03.217Z,24.33
2018-06-05T19:51:31.383Z,24.58
2018-06-05T19:53:59.996Z,24.80
2018-06-05T19:59:09.066Z,24.74
2018-06-05T20:01:37.960Z,25.02
2018-06-05T20:04:06.139Z,24.65
2018-06-05T20:06:34.300Z,24.37
2018-06-05T20:09:02.335Z,23.51
2018-06-05T20:11:30.085Z,22.93
2018-06-05T20:13:58.187Z,22.91
2018-06-05T20:16:26.079Z,22.68
2018-06-05T20:18:53.965Z,22.53
2018-06-05T20:21:21.873Z,22.33
2018-06-05T20:23:49.725Z,22.12
2018-06-05T20:26:17.646Z,21.71
2018-06-05T20:28:45.706Z,21.59
2018-06-05T20:31:13.773Z,21.46
2018-06-05T20:33:41.674Z,21.27
2018-06-05T20:36:09.521Z,21.08
2018-06-05T20:39:52.496Z,21.04
2018-06-05T20:42:20.405Z,20.97
2018-06-05T20:44:48.236Z,20.91
2018-06-05T20:47:16.254Z,20.91
2018-06-05T20:49:44.047Z,20.47
2018-06-05T20:52:11.932Z,20.38
2018-06-05T20:54:40.334Z,20.27
2018-06-05T20:57:08.541Z,20.27
2018-06-05T20:59:36.711Z,20.08
2018-06-05T21:02:04.618Z,20.01
2018-06-05T21:04:32.942Z,20.00
2018-06-05T21:07:00.810Z,19.71
2018-06-05T21:09:30.731Z,19.70
2018-06-05T21:11:58.695Z,19.72
2018-06-05T21:14:26.531Z,19.60
2018-06-05T21:16:54.450Z,19.38
2018-06-05T21:19:22.607Z,19.20
2018-06-05T21:21:50.459Z,19.24
2018-06-05T21:24:18.282Z,19.32
2018-06-05T21:26:46.035Z,19.12
2018-06-05T21:29:13.912Z,19.09
2018-06-05T21:31:41.741Z,19.06
2018-06-05T21:34:09.624Z,18.82
2018-06-05T21:36:37.706Z,18.91
2018-06-05T21:39:07.409Z,18.84
2018-06-05T21:41:35.332Z,18.79
2018-06-05T21:44:03.142Z,18.66
2018-06-05T21:46:31.642Z,18.74
2018-06-05T21:48:59.554Z,18.74
2018-06-05T21:51:27.314Z,18.69
2018-06-05T21:53:55.264Z,18.60
2018-06-05T21:56:23.465Z,18.60
2018-06-05T21:58:51.376Z,18.37
2018-06-05T22:01:19.192Z,18.33
2018-06-05T22:03:46.976Z,18.32
2018-06-05T22:06:14.685Z,18.19
2018-06-05T22:08:42.522Z,18.15
2018-06-05T22:11:11.217Z,18.12
2018-06-05T22:13:38.977Z,18.06
2018-06-05T22:16:07.482Z,17.97
2018-06-05T22:18:35.446Z,18.01
2018-06-05T22:21:03.152Z,18.13
2018-06-05T22:23:30.995Z,18.02
2018-06-05T22:25:58.806Z,18.00
2018-06-05T22:28:26.750Z,18.00
2018-06-05T22:30:54.520Z,17.88
2018-06-05T22:33:22.372Z,17.88
2018-06-05T22:35:50.141Z,17.86
2018-06-05T22:38:25.237Z,17.84
2018-06-05T22:40:52.970Z,17.78
2018-06-05T22:43:20.841Z,17.82
2018-06-05T22:45:48.646Z,17.75
2018-06-05T22:48:16.603Z,17.71
2018-06-05T22:50:44.327Z,17.73
2018-06-05T22:53:12.144Z,17.68
2018-06-05T22:55:39.859Z,17.66
2018-06-05T22:58:07.650Z,17.54
2018-06-05T23:00:35.363Z,17.40
2018-06-05T23:03:03.174Z,17.35
2018-06-05T23:05:31.635Z,17.39
2018-06-05T23:07:59.600Z,17.41
2018-06-05T23:10:27.499Z,17.40
2018-06-05T23:12:55.273Z,17.30
2018-06-05T23:15:23.131Z,17.34
2018-06-05T23:17:50.836Z,17.13
2018-06-05T23:20:19.027Z,17.08
2018-06-05T23:22:46.855Z,17.10
2018-06-05T23:25:14.841Z,17.08
2018-06-05T23:27:42.746Z,17.02
2018-06-05T23:30:10.941Z,17.08
2018-06-05T23:32:39.092Z,17.05
2018-06-05T23:35:07.028Z,16.87
2018-06-05T23:37:35.006Z,16.91
2018-06-05T23:40:02.986Z,16.91
2018-06-05T23:42:30.797Z,16.94
2018-06-05T23:44:58.553Z,16.92
2018-06-05T23:47:26.413Z,16.78
2018-06-05T23:49:54.207Z,16.78
2018-06-05T23:52:22.183Z,16.74
2018-06-05T23:54:50.195Z,16.71
2018-06-05T23:57:18.646Z,16.70
2018-06-05T23:59:46.496Z,16.63
